Main page
METAR-TAF:

METAR-TAF

Airports :

Wittering, England

RAF Wittering

latitude: 52-37N, longitude: 000-28W, elevation: 84 m

Current weather observation

The report was made 1 hour and 2 minutes ago, at 03:50 UTC
Wind 17 kt from the West/Southwest
Temperature 10°C
Humidity 76%
Pressure 1004 hPa
Visibility 10 km or more

METAR: EGXT 220350Z AUTO 25017KT 9999 FEW031/// BKN190/// 10/06 Q1004

Time: 05:52 (04:52 UTC)

Forecast

The report was made 18 hours and 9 minutes ago, at 10:43 UTC
Forecast valid from 21 at 12 UTC to 21 at 15 UTC
Wind 20 kt from the South/Southwest with gusts up to 30 kt
Visibility 10 km or more
Few clouds at a height of 3000 ft
Probability 30% :
Temporary
from 21 at 12 UTC to 21 at 15 UTC
Wind 25 kt from the South/Southwest with gusts up to 40 kt
Visibility: 7000 m
rain showers

TAF: EGXT 211043Z 2112/2115 20020G30KT 9999 FEW030 PROB30 TEMPO 2112/2115 20025G40KT 7000 SHRA

Weather observations and forecasts of more than 4000 airports (METAR and TAF reports).

The available stations are represented by yellow and red dots on the map.

Hover mouse over dot to see the name of the station.

Then click to see weather observations and forecasts.

To change the map : click on the green buttons with a black cross to zoom in, on the green button with a dash to zoom out, or on the green arrows for adjacent maps.


METAR-TAF: